createdAt,value
2023-04-26T00:02:04.731Z,3.17
2023-04-26T00:04:32.238Z,3.20
2023-04-26T00:07:00.598Z,3.75
2023-04-26T00:09:27.339Z,3.45
2023-04-26T00:11:54.018Z,3.15
2023-04-26T00:14:21.127Z,3.58
2023-04-26T00:16:48.264Z,3.35
2023-04-26T00:19:15.975Z,2.92
2023-04-26T00:21:42.700Z,3.15
2023-04-26T00:24:09.571Z,3.00
2023-04-26T00:26:36.460Z,3.60
2023-04-26T00:29:06.082Z,3.72
2023-04-26T00:31:35.230Z,3.42
2023-04-26T00:34:02.030Z,3.67
2023-04-26T00:36:28.818Z,3.40
2023-04-26T00:38:55.681Z,3.70
2023-04-26T00:41:22.703Z,3.70
2023-04-26T00:43:49.686Z,3.60
2023-04-26T00:46:16.888Z,3.50
2023-04-26T00:48:44.881Z,3.45
2023-04-26T00:51:12.921Z,3.45
2023-04-26T00:53:40.091Z,4.18
2023-04-26T00:56:09.250Z,4.50
2023-04-26T00:58:37.601Z,4.30
2023-04-26T01:01:04.621Z,4.10
2023-04-26T01:03:31.536Z,4.30
2023-04-26T01:05:58.606Z,3.80
2023-04-26T01:08:25.563Z,3.70
2023-04-26T01:10:53.201Z,3.97
2023-04-26T01:13:20.790Z,4.00
2023-04-26T01:15:48.615Z,4.00
2023-04-26T01:18:15.436Z,3.75
2023-04-26T01:20:43.066Z,3.70
2023-04-26T01:23:11.760Z,3.60
2023-04-26T01:25:39.264Z,3.70
2023-04-26T01:28:06.350Z,3.78
2023-04-26T01:30:33.163Z,3.90
2023-04-26T01:33:03.206Z,3.60
2023-04-26T01:35:30.130Z,3.75
2023-04-26T01:37:56.853Z,3.67
2023-04-26T01:40:23.601Z,3.20
2023-04-26T01:42:50.438Z,3.90
2023-04-26T01:45:17.550Z,3.83
2023-04-26T01:48:03.171Z,3.50
2023-04-26T01:50:32.958Z,3.55
2023-04-26T01:52:59.643Z,3.47
2023-04-26T01:55:26.703Z,3.58
2023-04-26T01:57:53.700Z,3.25
2023-04-26T02:00:20.530Z,3.28
2023-04-26T02:02:49.442Z,3.05
2023-04-26T02:05:16.418Z,3.03
2023-04-26T02:07:43.169Z,3.42
2023-04-26T02:10:10.155Z,3.30
2023-04-26T02:12:36.956Z,3.38
2023-04-26T02:15:03.895Z,3.33
2023-04-26T02:17:33.976Z,3.42
2023-04-26T02:20:00.893Z,2.90
2023-04-26T02:22:27.759Z,3.38
2023-04-26T02:24:54.682Z,2.70
2023-04-26T02:27:27.783Z,2.83
2023-04-26T02:29:54.904Z,3.20
2023-04-26T02:32:21.819Z,2.97
2023-04-26T02:34:50.280Z,2.83
2023-04-26T02:37:17.111Z,2.83
2023-04-26T02:39:44.453Z,2.83
2023-04-26T02:42:11.359Z,2.85
2023-04-26T02:44:39.666Z,2.78
2023-04-26T02:47:07.027Z,3.20
2023-04-26T02:49:33.940Z,2.88
2023-04-26T02:52:00.796Z,3.10
2023-04-26T02:54:28.837Z,3.05
2023-04-26T02:56:58.993Z,3.17
2023-04-26T02:59:27.427Z,3.05
2023-04-26T03:01:55.530Z,3.25
2023-04-26T03:04:23.032Z,2.72
2023-04-26T03:06:49.889Z,2.83
2023-04-26T03:09:16.526Z,2.78
2023-04-26T03:11:43.252Z,2.80
2023-04-26T03:14:10.031Z,2.50
2023-04-26T03:16:44.786Z,2.60
2023-04-26T03:19:11.859Z,2.70
2023-04-26T03:21:39.913Z,2.70
2023-04-26T03:24:07.640Z,3.05
2023-04-26T03:26:34.394Z,2.70
2023-04-26T03:29:01.918Z,2.58
2023-04-26T03:31:28.794Z,2.58
2023-04-26T03:33:55.736Z,2.22
2023-04-26T03:36:22.512Z,2.22
2023-04-26T03:38:49.378Z,2.40
2023-04-26T03:41:17.758Z,2.42
2023-04-26T03:43:44.528Z,2.83
2023-04-26T03:46:11.397Z,2.65
2023-04-26T03:48:38.279Z,2.63
2023-04-26T03:51:05.031Z,2.90
2023-04-26T03:53:32.438Z,3.00
2023-04-26T03:56:05.446Z,2.70
2023-04-26T03:58:33.296Z,2.40
2023-04-26T04:01:00.818Z,2.70
2023-04-26T04:03:30.125Z,2.42
2023-04-26T04:05:59.693Z,2.40
2023-04-26T04:08:26.478Z,2.55
2023-04-26T04:10:53.259Z,2.58
2023-04-26T04:13:20.006Z,2.47
2023-04-26T04:15:49.336Z,2.78
2023-04-26T04:18:16.932Z,2.80
2023-04-26T04:20:43.694Z,2.72
2023-04-26T04:23:12.881Z,3.22
2023-04-26T04:28:12.025Z,3.00
2023-04-26T04:30:39.071Z,2.90
2023-04-26T04:33:08.669Z,3.15
2023-04-26T04:35:35.472Z,3.10
2023-04-26T04:38:04.648Z,3.23
2023-04-26T04:40:32.400Z,3.45
2023-04-26T04:43:01.004Z,3.40
2023-04-26T04:45:31.878Z,3.92
2023-04-26T04:47:59.906Z,4.00
2023-04-26T04:50:31.813Z,3.08
2023-04-26T04:52:58.673Z,3.00
2023-04-26T04:55:25.763Z,3.10
2023-04-26T04:57:53.544Z,2.90
2023-04-26T05:00:21.175Z,2.88
2023-04-26T05:02:53.012Z,2.80
2023-04-26T05:05:19.944Z,2.90
2023-04-26T05:07:47.207Z,3.28
2023-04-26T05:10:15.092Z,3.20
2023-04-26T05:12:44.223Z,2.90
2023-04-26T05:15:11.300Z,2.90
2023-04-26T05:17:38.087Z,2.90
2023-04-26T05:20:20.865Z,3.10
2023-04-26T05:22:48.458Z,3.05
2023-04-26T05:25:15.498Z,3.33
2023-04-26T05:27:42.585Z,3.58
2023-04-26T05:30:16.509Z,3.70
2023-04-26T05:32:56.183Z,3.20
2023-04-26T05:35:47.128Z,3.40
2023-04-26T05:38:17.038Z,2.97
2023-04-26T05:40:48.317Z,2.20
2023-04-26T05:43:17.886Z,2.30
2023-04-26T05:45:54.949Z,2.63
2023-04-26T05:48:29.880Z,2.30
2023-04-26T05:50:56.932Z,2.20
2023-04-26T05:53:25.947Z,2.30
2023-04-26T05:55:52.820Z,2.30
2023-04-26T05:58:22.011Z,2.60
2023-04-26T06:00:49.739Z,2.55
2023-04-26T06:03:18.803Z,2.80
2023-04-26T06:05:45.909Z,2.40
2023-04-26T06:08:14.735Z,2.50
2023-04-26T06:10:41.601Z,2.50
2023-04-26T06:13:08.388Z,2.40
2023-04-26T06:15:37.146Z,2.40
2023-04-26T06:18:06.476Z,2.63
2023-04-26T06:20:33.653Z,2.70
2023-04-26T06:23:00.575Z,2.58
2023-04-26T06:25:27.510Z,2.70
2023-04-26T06:27:54.723Z,2.80
2023-04-26T06:30:21.455Z,3.17
2023-04-26T06:32:48.821Z,2.70
2023-04-26T06:35:18.662Z,2.70
2023-04-26T06:37:45.840Z,2.70
2023-04-26T06:40:15.798Z,2.63
2023-04-26T06:42:43.494Z,2.90
2023-04-26T06:45:25.285Z,2.90
2023-04-26T06:47:53.304Z,2.72
2023-04-26T06:50:23.714Z,2.80
2023-04-26T06:52:51.527Z,3.30
2023-04-26T06:55:18.944Z,3.03
2023-04-26T06:57:51.729Z,3.25
2023-04-26T07:02:45.897Z,3.00
2023-04-26T07:05:16.351Z,2.92
2023-04-26T07:07:43.293Z,2.85
2023-04-26T07:10:10.579Z,3.05
2023-04-26T07:12:37.398Z,3.40
2023-04-26T07:15:06.664Z,3.60
2023-04-26T07:17:33.889Z,3.40
2023-04-26T07:20:04.251Z,4.00
2023-04-26T07:22:31.198Z,3.60
2023-04-26T07:25:00.636Z,3.95
2023-04-26T07:27:28.029Z,4.30
2023-04-26T07:29:57.835Z,3.70
2023-04-26T07:32:24.604Z,4.20
2023-04-26T07:34:51.691Z,4.18
2023-04-26T07:37:18.782Z,3.83
2023-04-26T07:39:50.236Z,3.83
2023-04-26T07:42:19.542Z,4.07
2023-04-26T07:44:48.353Z,4.18
2023-04-26T07:47:15.749Z,4.10
2023-04-26T07:49:47.656Z,3.78
2023-04-26T07:52:14.937Z,3.97
2023-04-26T07:54:44.692Z,4.40
2023-04-26T07:57:11.459Z,3.05
2023-04-26T07:59:38.173Z,3.10
2023-04-26T08:02:04.946Z,3.03
2023-04-26T08:04:34.423Z,2.97
2023-04-26T08:09:30.693Z,2.88
2023-04-26T08:11:58.088Z,2.70
2023-04-26T08:14:25.164Z,2.67
2023-04-26T08:16:52.090Z,3.00
2023-04-26T08:19:18.918Z,2.97
2023-04-26T08:21:46.252Z,3.05
2023-04-26T08:24:13.402Z,2.58
2023-04-26T08:26:41.173Z,2.55
2023-04-26T08:29:08.073Z,2.50
2023-04-26T08:31:35.556Z,2.40
2023-04-26T08:34:02.351Z,2.38
2023-04-26T08:36:29.178Z,2.50
2023-04-26T08:38:57.686Z,2.60
2023-04-26T08:41:26.057Z,2.80
2023-04-26T08:43:54.753Z,2.60
2023-04-26T08:46:22.488Z,2.40
2023-04-26T08:49:01.988Z,2.30
2023-04-26T08:51:29.962Z,2.50
2023-04-26T08:53:58.994Z,2.80
2023-04-26T08:56:26.140Z,2.60
2023-04-26T08:58:56.971Z,2.30
2023-04-26T09:01:26.300Z,1.85
2023-04-26T09:03:57.016Z,1.90
2023-04-26T09:06:25.033Z,2.30
2023-04-26T09:08:55.026Z,1.90
2023-04-26T09:11:22.452Z,1.88
2023-04-26T09:13:49.496Z,1.80
2023-04-26T09:16:16.301Z,2.00
2023-04-26T09:18:57.396Z,2.03
2023-04-26T09:21:24.794Z,2.00
2023-04-26T09:24:04.670Z,1.90
2023-04-26T09:26:31.468Z,1.98
2023-04-26T09:29:16.736Z,2.05
2023-04-26T09:31:49.983Z,2.10
2023-04-26T09:34:19.245Z,2.10
2023-04-26T09:36:55.577Z,2.20
2023-04-26T09:39:40.411Z,2.20
2023-04-26T09:42:08.044Z,2.20
2023-04-26T09:44:38.372Z,2.03
2023-04-26T09:47:09.669Z,2.10
2023-04-26T09:49:48.806Z,1.90
2023-04-26T09:52:16.416Z,1.58
2023-04-26T09:54:52.268Z,1.70
2023-04-26T09:57:27.263Z,1.60
2023-04-26T09:59:58.448Z,1.73
2023-04-26T10:02:29.962Z,1.52
2023-04-26T10:05:02.047Z,1.60
2023-04-26T10:07:30.372Z,1.60
2023-04-26T10:10:01.535Z,1.60
2023-04-26T10:12:29.397Z,1.60
2023-04-26T10:14:57.618Z,1.70
2023-04-26T10:17:24.766Z,1.60
2023-04-26T10:19:57.018Z,1.50
2023-04-26T10:22:27.502Z,1.70
2023-04-26T10:24:56.041Z,1.48
2023-04-26T10:27:47.182Z,1.38
2023-04-26T10:30:19.991Z,1.40
2023-04-26T10:32:55.482Z,1.50
2023-04-26T10:35:30.988Z,1.30
2023-04-26T10:38:00.643Z,1.42
2023-04-26T10:40:31.020Z,1.52
2023-04-26T10:43:09.917Z,1.60
2023-04-26T10:45:40.511Z,1.80
2023-04-26T10:48:19.615Z,1.50
2023-04-26T10:51:01.716Z,1.60
2023-04-26T10:53:33.139Z,1.60
2023-04-26T10:55:59.855Z,1.38
2023-04-26T10:58:33.727Z,1.70
2023-04-26T11:01:17.441Z,1.70
2023-04-26T11:04:05.140Z,1.63
2023-04-26T11:06:55.014Z,1.70
2023-04-26T11:12:00.016Z,1.60
2023-04-26T11:14:26.845Z,1.58
2023-04-26T11:16:56.311Z,1.70
2023-04-26T11:19:23.349Z,1.85
2023-04-26T11:21:50.631Z,1.70
2023-04-26T11:24:17.419Z,1.60
2023-04-26T11:26:51.640Z,1.40
2023-04-26T11:29:21.440Z,1.15
2023-04-26T11:32:07.058Z,1.30
2023-04-26T11:34:39.285Z,1.20
2023-04-26T11:37:07.041Z,1.10
2023-04-26T11:39:35.214Z,1.02
2023-04-26T11:42:09.505Z,0.98
2023-04-26T11:44:39.376Z,1.00
2023-04-26T11:47:07.903Z,1.13
2023-04-26T11:49:39.583Z,1.00
2023-04-26T11:52:08.217Z,1.05
2023-04-26T11:54:37.588Z,0.90
2023-04-26T11:57:17.322Z,0.93
2023-04-26T11:59:47.039Z,1.10
2023-04-26T12:02:14.591Z,1.00
2023-04-26T12:04:44.676Z,1.10
2023-04-26T12:07:18.847Z,1.20
2023-04-26T12:09:45.721Z,1.13
2023-04-26T12:12:12.518Z,1.10
2023-04-26T12:14:40.414Z,1.20
2023-04-26T12:17:08.351Z,1.30
2023-04-26T12:19:39.371Z,1.30
2023-04-26T12:22:07.546Z,1.60
2023-04-26T12:24:36.773Z,1.40
2023-04-26T12:27:06.687Z,1.50
2023-04-26T12:29:39.415Z,1.52
2023-04-26T12:32:14.205Z,1.50
2023-04-26T12:34:42.787Z,1.42
2023-04-26T12:37:17.043Z,1.58
2023-04-26T12:39:44.499Z,1.70
2023-04-26T12:42:11.537Z,2.05
2023-04-26T12:44:38.330Z,2.10
2023-04-26T12:47:10.347Z,2.20
2023-04-26T12:49:42.542Z,1.85
2023-04-26T12:52:09.435Z,1.80
2023-04-26T12:54:37.474Z,1.52
2023-04-26T12:57:07.274Z,1.60
2023-04-26T12:59:39.905Z,2.00
2023-04-26T13:02:07.597Z,3.05
2023-04-26T13:04:41.031Z,3.00
2023-04-26T13:07:08.884Z,3.40
2023-04-26T13:09:38.732Z,2.92
2023-04-26T13:12:10.509Z,2.60
2023-04-26T13:14:40.585Z,3.70
2023-04-26T13:17:09.193Z,4.13
2023-04-26T13:19:40.924Z,3.90
2023-04-26T13:22:10.486Z,3.65
2023-04-26T13:24:37.522Z,2.65
2023-04-26T13:27:04.410Z,2.50
2023-04-26T13:29:35.201Z,2.58
2023-04-26T13:32:04.380Z,2.35
2023-04-26T13:34:31.441Z,1.90
2023-04-26T13:37:00.944Z,1.90
2023-04-26T13:39:33.110Z,2.00
2023-04-26T13:42:01.986Z,2.10
2023-04-26T13:44:28.858Z,2.50
2023-04-26T13:47:00.788Z,3.20
2023-04-26T13:49:27.579Z,3.10
2023-04-26T13:51:54.432Z,3.30
2023-04-26T13:54:28.071Z,3.58
2023-04-26T13:56:55.285Z,3.40
2023-04-26T13:59:22.307Z,3.53
2023-04-26T14:01:49.138Z,3.95
2023-04-26T14:04:16.176Z,4.30
2023-04-26T14:06:43.116Z,4.50
2023-04-26T14:09:12.009Z,4.25
2023-04-26T14:11:40.997Z,4.88
2023-04-26T14:14:12.248Z,5.60
2023-04-26T14:16:41.337Z,4.38
2023-04-26T14:19:11.355Z,5.43
2023-04-26T14:21:38.247Z,4.20
2023-04-26T14:24:05.529Z,4.70
2023-04-26T14:26:33.518Z,4.50
2023-04-26T14:29:01.384Z,4.28
2023-04-26T14:31:28.901Z,4.50
2023-04-26T14:33:56.642Z,4.40
2023-04-26T14:36:23.761Z,4.55
2023-04-26T14:38:58.929Z,5.00
2023-04-26T14:41:27.322Z,4.50
2023-04-26T14:43:54.416Z,4.88
2023-04-26T14:46:24.075Z,4.70
2023-04-26T14:48:51.194Z,5.10
2023-04-26T14:51:18.286Z,4.88
2023-04-26T14:53:45.117Z,4.80
2023-04-26T14:56:15.139Z,4.05
2023-04-26T15:01:09.395Z,3.92
2023-04-26T15:03:38.766Z,3.85
2023-04-26T15:06:05.925Z,4.07
2023-04-26T15:08:35.226Z,4.50
2023-04-26T15:11:03.208Z,5.05
2023-04-26T15:13:29.953Z,5.40
2023-04-26T15:16:06.024Z,4.60
2023-04-26T15:18:37.399Z,4.43
2023-04-26T15:21:04.231Z,3.90
2023-04-26T15:23:33.992Z,3.28
2023-04-26T15:26:05.972Z,2.75
2023-04-26T15:28:35.338Z,2.90
2023-04-26T15:31:10.545Z,2.40
2023-04-26T15:33:39.632Z,2.13
2023-04-26T15:36:09.431Z,3.42
2023-04-26T15:38:36.486Z,2.75
2023-04-26T15:41:06.693Z,2.63
2023-04-26T15:43:33.646Z,2.35
2023-04-26T15:46:03.478Z,2.30
2023-04-26T15:48:32.892Z,2.45
2023-04-26T15:50:59.747Z,2.20
2023-04-26T15:53:26.981Z,2.65
2023-04-26T15:55:56.704Z,2.80
2023-04-26T15:58:28.927Z,2.42
2023-04-26T16:00:57.864Z,3.17
2023-04-26T16:03:29.835Z,2.58
2023-04-26T16:05:57.116Z,2.70
2023-04-26T16:08:39.291Z,2.63
2023-04-26T16:11:16.414Z,2.88
2023-04-26T16:13:46.225Z,2.80
2023-04-26T16:16:13.101Z,3.33
2023-04-26T16:18:46.289Z,3.60
2023-04-26T16:21:15.260Z,3.63
2023-04-26T16:23:49.874Z,3.42
2023-04-26T16:26:19.143Z,4.03
2023-04-26T16:28:45.829Z,4.28
2023-04-26T16:31:14.569Z,4.60
2023-04-26T16:33:44.253Z,4.57
2023-04-26T16:36:11.063Z,4.10
2023-04-26T16:38:40.893Z,4.00
2023-04-26T16:41:10.003Z,4.18
2023-04-26T16:43:39.113Z,4.05
2023-04-26T16:46:08.335Z,4.85
2023-04-26T16:48:39.010Z,3.90
2023-04-26T16:51:07.575Z,3.28
2023-04-26T16:53:36.091Z,3.03
2023-04-26T16:56:03.628Z,3.17
2023-04-26T16:58:40.216Z,3.03
2023-04-26T17:01:11.542Z,2.60
2023-04-26T17:03:43.561Z,2.80
2023-04-26T17:06:11.434Z,2.60
2023-04-26T17:08:41.231Z,2.65
2023-04-26T17:11:21.501Z,2.90
2023-04-26T17:13:48.649Z,2.47
2023-04-26T17:16:16.658Z,3.10
2023-04-26T17:18:46.347Z,3.00
2023-04-26T17:21:15.420Z,2.80
2023-04-26T17:23:45.284Z,3.00
2023-04-26T17:26:12.311Z,3.35
2023-04-26T17:28:39.087Z,4.00
2023-04-26T17:31:06.183Z,3.90
2023-04-26T17:33:37.954Z,4.15
2023-04-26T17:36:05.488Z,3.90
2023-04-26T17:38:37.107Z,3.30
2023-04-26T17:41:05.754Z,2.47
2023-04-26T17:43:35.462Z,2.20
2023-04-26T17:46:04.972Z,1.60
2023-04-26T17:48:31.909Z,1.70
2023-04-26T17:50:59.003Z,1.63
2023-04-26T17:53:26.707Z,1.52
2023-04-26T17:55:55.196Z,1.50
2023-04-26T17:58:22.151Z,1.50
2023-04-26T18:00:50.604Z,1.38
2023-04-26T18:03:21.170Z,1.45
2023-04-26T18:05:48.809Z,1.50
2023-04-26T18:08:16.066Z,1.40
2023-04-26T18:10:43.393Z,1.70
2023-04-26T18:13:16.528Z,2.10
2023-04-26T18:15:44.515Z,2.25
2023-04-26T18:18:15.094Z,1.70
2023-04-26T18:20:42.445Z,1.60
2023-04-26T18:23:15.801Z,1.85
2023-04-26T18:25:44.142Z,2.17
2023-04-26T18:28:13.971Z,2.17
2023-04-26T18:30:44.807Z,2.50
2023-04-26T18:33:14.505Z,1.70
2023-04-26T18:35:50.235Z,2.50
2023-04-26T18:38:19.651Z,2.20
2023-04-26T18:40:52.003Z,1.70
2023-04-26T18:43:21.189Z,2.00
2023-04-26T18:45:51.107Z,1.90
2023-04-26T18:48:17.901Z,1.83
2023-04-26T18:50:56.486Z,1.90
2023-04-26T18:53:27.462Z,1.70
2023-04-26T18:55:55.676Z,1.20
2023-04-26T18:58:26.072Z,1.10
2023-04-26T19:01:08.316Z,1.20
2023-04-26T19:03:35.518Z,1.37
2023-04-26T19:06:11.723Z,1.23
2023-04-26T19:08:42.314Z,1.60
2023-04-26T19:11:12.929Z,1.50
2023-04-26T19:13:40.620Z,0.95
2023-04-26T19:16:18.976Z,0.80
2023-04-26T19:18:58.152Z,0.52
2023-04-26T19:21:24.870Z,0.70
2023-04-26T19:23:51.601Z,0.47
2023-04-26T19:26:27.691Z,0.50
2023-04-26T19:28:59.359Z,0.60
2023-04-26T19:31:29.160Z,0.50
2023-04-26T19:33:58.998Z,0.60
2023-04-26T19:36:37.161Z,0.47
2023-04-26T19:39:10.069Z,0.40
2023-04-26T19:41:39.629Z,0.50
2023-04-26T19:44:06.361Z,0.60
2023-04-26T19:46:35.467Z,0.68
2023-04-26T19:49:07.750Z,0.70
2023-04-26T19:51:34.882Z,0.60
2023-04-26T19:54:08.590Z,0.70
2023-04-26T19:57:04.912Z,0.75
2023-04-26T19:59:41.494Z,0.70
2023-04-26T20:02:14.137Z,0.90
2023-04-26T20:04:41.244Z,0.90
2023-04-26T20:07:11.326Z,0.70
2023-04-26T20:09:38.088Z,0.80
2023-04-26T20:12:07.714Z,0.70
2023-04-26T20:14:34.779Z,2.00
2023-04-26T20:17:02.576Z,0.90
2023-04-26T20:19:29.838Z,0.80
2023-04-26T20:21:59.585Z,0.57
2023-04-26T20:24:36.960Z,0.57
2023-04-26T20:27:06.184Z,0.60
2023-04-26T20:29:32.979Z,0.63
2023-04-26T20:31:59.747Z,0.60
2023-04-26T20:34:29.376Z,0.88
2023-04-26T20:36:56.183Z,0.60
2023-04-26T20:39:29.456Z,0.67
2023-04-26T20:41:58.712Z,0.80
2023-04-26T20:44:25.589Z,0.70
2023-04-26T20:46:52.280Z,0.80
2023-04-26T20:49:19.233Z,1.20
2023-04-26T20:51:46.062Z,1.10
2023-04-26T20:54:12.801Z,0.70
2023-04-26T20:56:41.716Z,0.60
2023-04-26T20:59:08.588Z,0.70
2023-04-26T21:01:40.301Z,0.65
2023-04-26T21:04:09.055Z,0.80
2023-04-26T21:06:35.965Z,0.90
2023-04-26T21:09:02.734Z,0.80
2023-04-26T21:11:36.352Z,0.60
2023-04-26T21:14:08.858Z,0.80
2023-04-26T21:16:38.255Z,0.60
2023-04-26T21:19:05.455Z,0.70
2023-04-26T21:21:32.696Z,0.73
2023-04-26T21:23:59.881Z,0.70
2023-04-26T21:26:29.731Z,0.90
2023-04-26T21:28:56.650Z,0.90
2023-04-26T21:31:23.682Z,1.50
2023-04-26T21:33:50.867Z,1.00
2023-04-26T21:36:17.784Z,1.00
2023-04-26T21:38:44.772Z,0.90
2023-04-26T21:41:11.592Z,1.20
2023-04-26T21:43:41.120Z,0.90
2023-04-26T21:46:08.140Z,1.00
2023-04-26T21:48:35.459Z,1.25
2023-04-26T21:51:02.385Z,1.20
2023-04-26T21:53:29.233Z,1.15
2023-04-26T21:55:56.442Z,1.58
2023-04-26T21:58:23.450Z,1.30
2023-04-26T22:00:50.900Z,1.52
2023-04-26T22:03:18.699Z,1.00
2023-04-26T22:05:45.974Z,1.10
2023-04-26T22:08:15.261Z,0.90
2023-04-26T22:10:42.143Z,1.33
2023-04-26T22:13:11.607Z,1.10
2023-04-26T22:15:38.487Z,1.10
2023-04-26T22:18:05.439Z,0.90
2023-04-26T22:20:32.332Z,1.02
2023-04-26T22:22:59.374Z,0.80
2023-04-26T22:25:26.794Z,0.88
2023-04-26T22:27:53.906Z,0.90
2023-04-26T22:30:25.405Z,0.77
2023-04-26T22:32:55.627Z,0.90
2023-04-26T22:35:25.852Z,0.80
2023-04-26T22:37:52.944Z,0.90
2023-04-26T22:40:20.907Z,1.33
2023-04-26T22:42:47.876Z,1.00
2023-04-26T22:45:14.790Z,1.00
2023-04-26T22:47:41.635Z,1.20
2023-04-26T22:50:08.974Z,1.38
2023-04-26T22:52:36.346Z,1.10
2023-04-26T22:55:03.494Z,0.90
2023-04-26T22:57:31.299Z,1.20
2023-04-26T23:00:00.867Z,0.98
2023-04-26T23:02:27.906Z,0.93
2023-04-26T23:04:54.884Z,1.00
2023-04-26T23:07:22.849Z,0.90
2023-04-26T23:09:51.984Z,1.00
2023-04-26T23:12:20.160Z,1.00
2023-04-26T23:14:48.678Z,1.10
2023-04-26T23:17:15.758Z,0.88
2023-04-26T23:19:42.735Z,0.80
2023-04-26T23:22:09.577Z,0.88
2023-04-26T23:24:38.699Z,1.00
2023-04-26T23:27:05.561Z,1.10
2023-04-26T23:29:32.599Z,1.10
2023-04-26T23:32:00.862Z,1.00
2023-04-26T23:34:30.117Z,0.95
2023-04-26T23:37:06.982Z,0.90
2023-04-26T23:39:36.124Z,0.60
2023-04-26T23:42:04.029Z,0.55
2023-04-26T23:44:31.328Z,0.60
2023-04-26T23:47:00.055Z,0.73
2023-04-26T23:49:27.184Z,0.55
2023-04-26T23:51:54.072Z,0.60
2023-04-26T23:54:20.929Z,0.50
2023-04-26T23:56:48.277Z,0.50
2023-04-26T23:59:16.538Z,0.50
